Itapiranga, Brazil
Current Conditions -  °F | °C
As of 9:00 PM on Monday 22 Dec 2014 (Local Time) from SBCH Reporting Station
Scattered Clouds Scattered Clouds  
Wind Chill: 68°   Ceiling: Unl
Heat Index: 68°   Visibility: 6mi
Dew Point: 59°   Wind: 12mph
Humidity: 73%   Direction: 170°S
Pressure: 30"   Gusts: NA
Location:  27.17°S, 53.71°W
Report Text: SBCH 222300Z 17010KT 9999 SCT045 SCT070 20/15 Q1016
Loading
Personal Weather Stations






























Interactive Weather Map New forecast layout! Learn more

10-Day Weather Forecast

Advertisements
Track Severe Weather on mobile